Time;durP1;ratioP1;P1;durP2;ratioP2;P2;SDS_P1;SDS_P2;PMS_P1;PMS_P2;Temp;Humidity;BMP_temperature;BMP_pressure;BME280_temperature;BME280_humidity;BME280_pressure;Samples;Min_cycle;Max_cycle;Signal;HPM_P1;HPM_P2
2023/06/04 00:00:50;;;;;;;;;;;;;;;21.41;56.85;99659.97;5093796;28;19912;-77
2023/06/04 00:03:15;;;;;;;;;;;;;;;21.43;56.15;99658.66;5094924;28;20377;-77
2023/06/04 00:05:40;;;;;;;;;;;;;;;21.38;56.56;99653.22;5094920;28;19942;-77
2023/06/04 00:08:05;;;;;;;;;;;;;;;21.36;56.73;99659.88;5094957;28;20007;-77
2023/06/04 00:10:32;;;;;;;;;;;;;;;21.35;57.38;99663.63;5094827;28;19924;-77
2023/06/04 00:12:57;;;;;;;;;;;;;;;21.33;56.89;99669.25;5094913;28;20392;-77
2023/06/04 00:15:22;;;;;;;;;;;;;;;21.32;56.92;99675.69;5094970;28;19955;-77
2023/06/04 00:17:48;;;;;;;;;;;;;;;21.33;57.11;99676.50;5094858;28;19965;-77
2023/06/04 00:20:13;;;;;;;;;;;;;;;21.31;57.34;99668.69;5094937;28;20329;-76
2023/06/04 00:22:41;;;;;;;;;;;;;;;21.28;57.34;99669.16;5094831;28;19912;-77
2023/06/04 00:25:06;;;;;;;;;;;;;;;21.27;57.61;99672.09;5094616;28;19920;-77
2023/06/04 00:27:32;;;;;;;;;;;;;;;21.23;58.11;99669.91;5094534;28;19920;-77
2023/06/04 00:29:57;;;;;;;;;;;;;;;21.24;57.52;99674.22;5094598;28;20037;-78
2023/06/04 00:32:22;;;;;;;;;;;;;;;21.30;57.49;99674.28;5093088;28;19920;-78
2023/06/04 00:34:51;;;;;;;;;;;;;;;21.32;56.85;99672.19;5094519;28;20016;-78
2023/06/04 00:37:17;;;;;;;;;;;;;;;21.30;57.23;99672.41;5094562;28;19916;-78
2023/06/04 00:39:42;;;;;;;;;;;;;;;21.30;57.20;99679.66;5094692;28;20300;-77
2023/06/04 00:42:07;;;;;;;;;;;;;;;21.31;57.51;99675.91;5094352;28;19916;-77
2023/06/04 00:44:33;;;;;;;;;;;;;;;21.30;57.32;99677.78;5094334;28;19985;-78
2023/06/04 00:46:58;;;;;;;;;;;;;;;21.29;58.11;99673.47;5091890;28;20356;-78
2023/06/04 00:49:24;;;;;;;;;;;;;;;21.31;57.13;99665.19;5094329;28;19916;-77
2023/06/04 00:51:50;;;;;;;;;;;;;;;21.29;57.08;99673.47;5093973;28;19939;-78
2023/06/04 00:54:17;;;;;;;;;;;;;;;21.26;57.29;99673.97;5093938;28;20388;-75
2023/06/04 00:56:44;;;;;;;;;;;;;;;21.24;57.58;99676.09;5093972;28;20330;-78
2023/06/04 00:59:09;;;;;;;;;;;;;;;21.23;57.69;99680.66;5094005;28;19920;-77
2023/06/04 01:01:40;;;;;;;;;;;;;;;21.23;58.02;99669.09;5093989;28;19908;-77
2023/06/04 01:04:08;;;;;;;;;;;;;;;21.22;57.95;99678.16;5092628;28;20320;-77
2023/06/04 01:06:36;;;;;;;;;;;;;;;21.21;57.85;99666.63;5094043;28;19923;-76
2023/06/04 01:09:02;;;;;;;;;;;;;;;21.16;57.63;99666.53;5094102;28;20278;-77
2023/06/04 01:11:31;;;;;;;;;;;;;;;21.14;57.96;99667.84;5099838;28;19981;-77
2023/06/04 01:13:56;;;;;;;;;;;;;;;21.11;58.49;99671.00;5102494;28;19912;-76
2023/06/04 01:16:21;;;;;;;;;;;;;;;21.10;58.19;99672.06;5103109;28;19919;-77
2023/06/04 01:18:47;;;;;;;;;;;;;;;21.07;58.90;99669.88;5094331;28;20390;-76
2023/06/04 01:21:18;;;;;;;;;;;;;;;21.04;59.05;99662.31;5094336;28;20389;-75
2023/06/04 01:23:58;;;;;;;;;;;;;;;20.99;58.29;99671.09;5093874;28;19939;-76
2023/06/04 01:26:27;;;;;;;;;;;;;;;20.96;58.61;99665.38;5093818;28;19912;-76
2023/06/04 01:28:54;;;;;;;;;;;;;;;20.90;58.71;99673.34;5093767;28;19931;-75
2023/06/04 01:31:22;;;;;;;;;;;;;;;20.92;59.29;99668.56;5092349;28;19922;-76
2023/06/04 01:34:00;;;;;;;;;;;;;;;20.90;58.35;99675.22;5093767;28;19912;-75
2023/06/04 01:36:25;;;;;;;;;;;;;;;20.89;58.64;99676.28;5093925;28;19912;-76
2023/06/04 01:38:51;;;;;;;;;;;;;;;20.84;59.12;99671.63;5093360;28;19942;-76
2023/06/04 01:41:16;;;;;;;;;;;;;;;20.85;58.05;99675.94;5093266;28;19923;-77
2023/06/04 01:43:41;;;;;;;;;;;;;;;20.87;58.17;99673.84;5093214;28;19912;-76
2023/06/04 01:46:07;;;;;;;;;;;;;;;20.82;59.08;99671.06;5091875;28;19919;-77
2023/06/04 01:48:32;;;;;;;;;;;;;;;20.74;57.68;99666.06;5092884;28;19916;-76
2023/06/04 01:50:58;;;;;;;;;;;;;;;20.68;57.91;99664.34;5092895;28;20002;-76
2023/06/04 01:53:23;;;;;;;;;;;;;;;20.62;58.35;99676.84;5093304;28;19912;-77
2023/06/04 01:55:49;;;;;;;;;;;;;;;20.60;58.77;99680.81;5093128;28;19926;-77
2023/06/04 01:58:17;;;;;;;;;;;;;;;20.56;58.38;99679.69;5092714;28;19912;-76
2023/06/04 02:00:43;;;;;;;;;;;;;;;20.58;58.58;99691.81;5092962;28;19911;-76
2023/06/04 02:03:08;;;;;;;;;;;;;;;20.57;59.92;99684.81;5092849;28;19912;-77
2023/06/04 02:05:33;;;;;;;;;;;;;;;20.54;60.35;99692.50;5092920;28;19991;-77
2023/06/04 02:08:01;;;;;;;;;;;;;;;20.52;60.39;99698.13;5092847;28;19913;-77
2023/06/04 02:10:27;;;;;;;;;;;;;;;20.52;60.43;99700.00;5091442;28;19913;-77
2023/06/04 02:12:55;;;;;;;;;;;;;;;20.52;59.53;99705.34;5092568;28;20419;-77
2023/06/04 02:15:22;;;;;;;;;;;;;;;20.59;59.48;99706.03;5092607;28;20472;-78
2023/06/04 02:17:50;;;;;;;;;;;;;;;20.57;59.09;99705.44;5092593;28;20007;-77
2023/06/04 02:20:16;;;;;;;;;;;;;;;20.54;59.12;99713.97;5093097;28;19905;-77
2023/06/04 02:22:41;;;;;;;;;;;;;;;20.51;58.36;99714.47;5092805;28;20007;-78
2023/06/04 02:25:09;;;;;;;;;;;;;;;20.51;58.58;99723.31;5092624;28;19970;-77
2023/06/04 02:27:34;;;;;;;;;;;;;;;20.52;58.99;99722.25;5092359;28;19920;-76
2023/06/04 02:29:59;;;;;;;;;;;;;;;20.56;58.56;99728.78;5092557;28;19935;-77
2023/06/04 02:32:25;;;;;;;;;;;;;;;20.59;58.75;99732.84;5092225;28;19916;-77
2023/06/04 02:34:50;;;;;;;;;;;;;;;20.61;58.84;99736.13;5092364;28;20383;-77
2023/06/04 02:37:15;;;;;;;;;;;;;;;20.58;58.85;99739.28;5090879;28;20385;-77
2023/06/04 02:39:40;;;;;;;;;;;;;;;20.52;59.48;99735.69;5090755;28;19951;-76
2023/06/04 02:42:06;;;;;;;;;;;;;;;20.57;58.95;99743.00;5092119;28;19918;-77
2023/06/04 02:44:32;;;;;;;;;;;;;;;20.57;58.59;99740.31;5092332;28;19928;-77
2023/06/04 02:46:57;;;;;;;;;;;;;;;20.57;58.39;99743.81;5092202;28;19912;-77
2023/06/04 02:49:22;;;;;;;;;;;;;;;20.57;58.66;99743.81;5092096;28;19912;-77
2023/06/04 02:51:47;;;;;;;;;;;;;;;20.58;59.35;99740.09;5092108;28;20002;-76
2023/06/04 02:54:13;;;;;;;;;;;;;;;20.60;58.32;99746.03;5092082;28;19912;-77
2023/06/04 02:56:39;;;;;;;;;;;;;;;20.57;58.91;99743.81;5092179;28;20369;-76
2023/06/04 02:59:05;;;;;;;;;;;;;;;20.57;59.71;99746.50;5092089;28;19912;-77
2023/06/04 03:01:30;;;;;;;;;;;;;;;20.54;59.02;99746.97;5092012;28;20002;-76
2023/06/04 03:03:57;;;;;;;;;;;;;;;20.54;59.40;99746.16;5091985;28;19915;-77
2023/06/04 03:06:44;;;;;;;;;;;;;;;20.55;58.80;99748.63;5091894;28;19947;-76
2023/06/04 03:09:09;;;;;;;;;;;;;;;20.56;58.67;99752.94;5090428;28;20323;-77
2023/06/04 03:11:35;;;;;;;;;;;;;;;20.57;58.71;99759.91;5094623;28;20006;-76
2023/06/04 03:14:00;;;;;;;;;;;;;;;20.59;59.18;99757.00;5095982;28;19912;-77
2023/06/04 03:16:25;;;;;;;;;;;;;;;20.60;59.20;99756.75;5095901;28;20311;-77
2023/06/04 03:18:50;;;;;;;;;;;;;;;20.61;59.15;99757.56;5094718;28;19912;-77
2023/06/04 03:21:16;;;;;;;;;;;;;;;20.61;59.78;99754.91;5094453;28;19912;-77
2023/06/04 03:23:43;;;;;;;;;;;;;;;20.62;59.20;99761.88;5095857;28;19916;-77
2023/06/04 03:26:08;;;;;;;;;;;;;;;20.61;60.22;99763.75;5095837;28;20446;-77
2023/06/04 03:28:33;;;;;;;;;;;;;;;20.63;59.54;99767.00;5095539;28;19919;-77
2023/06/04 03:30:59;;;;;;;;;;;;;;;20.63;59.74;99772.38;5094431;28;20290;-77
2023/06/04 03:33:24;;;;;;;;;;;;;;;20.67;59.99;99766.53;5095757;28;19947;-77
2023/06/04 03:35:50;;;;;;;;;;;;;;;20.66;59.58;99765.72;5095971;28;19912;-77
2023/06/04 03:38:16;;;;;;;;;;;;;;;20.67;59.62;99770.03;5095577;28;20385;-77
2023/06/04 03:40:42;;;;;;;;;;;;;;;20.66;59.74;99768.41;5095539;28;19935;-77
2023/06/04 03:43:07;;;;;;;;;;;;;;;20.69;59.55;99767.94;5095541;28;19912;-78
2023/06/04 03:45:32;;;;;;;;;;;;;;;20.71;59.25;99763.13;5095548;28;20354;-77
2023/06/04 03:47:58;;;;;;;;;;;;;;;20.69;59.48;99765.25;5095131;28;19913;-77
2023/06/04 03:50:23;;;;;;;;;;;;;;;20.71;59.40;99771.19;5095041;28;19912;-77
2023/06/04 03:52:48;;;;;;;;;;;;;;;20.71;59.29;99765.81;5095327;28;19919;-78
2023/06/04 03:55:13;;;;;;;;;;;;;;;20.69;59.24;99769.78;5095255;28;19947;-78
2023/06/04 03:57:39;;;;;;;;;;;;;;;20.68;59.33;99768.97;5095347;28;19916;-77
2023/06/04 04:00:05;;;;;;;;;;;;;;;20.72;58.82;99777.38;5093871;28;19912;-77
2023/06/04 04:02:31;;;;;;;;;;;;;;;20.68;58.90;99774.34;5095050;28;20278;-77
2023/06/04 04:04:57;;;;;;;;;;;;;;;20.67;59.71;99779.94;5095173;28;19912;-77
2023/06/04 04:07:22;;;;;;;;;;;;;;;20.70;59.12;99782.16;5095334;28;19912;-77
2023/06/04 04:09:47;;;;;;;;;;;;;;;20.70;59.42;99793.72;5094089;28;19912;-76
2023/06/04 04:12:13;;;;;;;;;;;;;;;20.69;59.65;99786.72;5097439;28;19962;-77
2023/06/04 04:14:38;;;;;;;;;;;;;;;20.70;59.33;99790.22;5107553;28;19912;-77
2023/06/04 04:17:03;;;;;;;;;;;;;;;20.73;59.66;99787.88;5105950;28;19912;-76
2023/06/04 04:19:29;;;;;;;;;;;;;;;20.75;59.19;99796.50;5095106;28;19919;-76
2023/06/04 04:21:54;;;;;;;;;;;;;;;20.77;58.31;99786.34;5095020;28;19912;-76
2023/06/04 04:24:24;;;;;;;;;;;;;;;20.80;58.77;99793.91;5095429;28;19958;-76
2023/06/04 04:26:52;;;;;;;;;;;;;;;20.86;59.58;99800.22;5094817;28;19912;-77
2023/06/04 04:29:17;;;;;;;;;;;;;;;20.90;58.45;99796.81;5094534;28;19920;-76
2023/06/04 04:31:43;;;;;;;;;;;;;;;20.93;58.37;99798.22;5094525;28;20007;-76
2023/06/04 04:34:08;;;;;;;;;;;;;;;21.00;57.89;99796.19;5094587;28;19970;-76
2023/06/04 04:36:34;;;;;;;;;;;;;;;21.05;57.86;99798.16;5094915;28;19974;-76
2023/06/04 04:39:00;;;;;;;;;;;;;;;21.09;57.51;99799.31;5101973;28;19969;-77
2023/06/04 04:41:26;;;;;;;;;;;;;;;21.11;57.80;99802.56;5095747;28;19912;-77
2023/06/04 04:43:52;;;;;;;;;;;;;;;21.09;57.05;99802.00;5094770;28;19913;-77
2023/06/04 04:46:17;;;;;;;;;;;;;;;21.08;57.40;99808.44;5094833;28;19937;-77
2023/06/04 04:48:43;;;;;;;;;;;;;;;21.08;57.61;99817.28;5094691;28;20006;-77
2023/06/04 04:51:08;;;;;;;;;;;;;;;21.11;57.61;99824.06;5094215;28;19916;-77
2023/06/04 04:53:35;;;;;;;;;;;;;;;21.11;56.69;99816.00;5094318;28;19912;-78
2023/06/04 04:56:00;;;;;;;;;;;;;;;21.12;57.19;99823.81;5094201;28;19912;-77
2023/06/04 04:58:25;;;;;;;;;;;;;;;21.17;57.53;99823.91;5094303;28;19919;-77
2023/06/04 05:00:50;;;;;;;;;;;;;;;21.23;57.19;99830.22;5094122;28;20470;-77
2023/06/04 05:03:16;;;;;;;;;;;;;;;21.25;57.22;99830.78;5094161;28;19916;-77
2023/06/04 05:05:41;;;;;;;;;;;;;;;21.29;57.14;99826.56;5094185;28;19912;-77
2023/06/04 05:08:06;;;;;;;;;;;;;;;21.36;57.27;99835.28;5093934;28;20350;-77
2023/06/04 05:10:33;;;;;;;;;;;;;;;21.44;56.72;99834.91;5093858;28;19965;-77
2023/06/04 05:12:58;;;;;;;;;;;;;;;21.48;56.72;99822.59;5093838;28;19919;-77
2023/06/04 05:15:26;;;;;;;;;;;;;;;21.48;56.83;99827.16;5092526;28;19911;-77
2023/06/04 05:17:52;;;;;;;;;;;;;;;21.45;56.95;99831.16;5093643;28;19919;-77
2023/06/04 05:20:18;;;;;;;;;;;;;;;21.47;56.99;99836.28;5092348;28;19918;-77
2023/06/04 05:22:45;;;;;;;;;;;;;;;21.51;57.25;99838.25;5094002;28;20312;-77
2023/06/04 05:25:10;;;;;;;;;;;;;;;21.59;57.10;99841.63;5093860;28;19995;-77
2023/06/04 05:27:36;;;;;;;;;;;;;;;21.63;56.81;99838.22;5092303;28;20485;-76
2023/06/04 05:30:02;;;;;;;;;;;;;;;21.64;57.05;99847.09;5093671;28;20304;-76
2023/06/04 05:32:28;;;;;;;;;;;;;;;21.70;56.67;99846.09;5093412;28;19916;-76
2023/06/04 05:34:56;;;;;;;;;;;;;;;21.73;56.67;99840.25;5092973;28;19923;-76
2023/06/04 05:37:23;;;;;;;;;;;;;;;21.76;56.33;99847.81;5093463;28;19934;-78
2023/06/04 05:39:49;;;;;;;;;;;;;;;21.80;56.08;99847.09;5093364;28;20380;-78
2023/06/04 05:42:15;;;;;;;;;;;;;;;21.81;56.40;99854.09;5093372;28;19955;-78
2023/06/04 05:44:40;;;;;;;;;;;;;;;21.82;56.25;99852.22;5093307;28;19995;-77
2023/06/04 05:47:05;;;;;;;;;;;;;;;21.81;56.82;99858.66;5093789;28;19919;-78
2023/06/04 05:49:31;;;;;;;;;;;;;;;21.83;56.95;99867.28;5093077;28;19919;-77
2023/06/04 05:51:56;;;;;;;;;;;;;;;21.82;56.53;99866.47;5091630;28;19924;-77
2023/06/04 05:54:21;;;;;;;;;;;;;;;21.83;56.66;99870.81;5091594;28;19935;-77
2023/06/04 05:56:46;;;;;;;;;;;;;;;21.91;55.63;99876.84;5091623;28;20428;-77
2023/06/04 05:59:12;;;;;;;;;;;;;;;21.91;56.10;99871.44;5092684;28;19935;-77
2023/06/04 06:01:38;;;;;;;;;;;;;;;21.88;56.57;99880.81;5092831;28;19909;-77
2023/06/04 06:04:03;;;;;;;;;;;;;;;21.84;56.63;99887.75;5092811;28;19916;-78
2023/06/04 06:06:28;;;;;;;;;;;;;;;21.84;56.31;99887.75;5092818;28;19912;-76
2023/06/04 06:08:54;;;;;;;;;;;;;;;21.85;56.44;99886.69;5092846;28;19912;-75
2023/06/04 06:11:19;;;;;;;;;;;;;;;21.87;57.08;99885.38;5091253;28;19920;-78
2023/06/04 06:13:44;;;;;;;;;;;;;;;21.89;56.15;99895.91;5092709;28;19912;-77
2023/06/04 06:16:28;;;;;;;;;;;;;;;21.87;56.58;99898.00;5091316;28;19980;-77
2023/06/04 06:18:53;;;;;;;;;;;;;;;21.84;56.91;99906.56;5092574;28;19963;-77
2023/06/04 06:21:19;;;;;;;;;;;;;;;21.82;57.22;99909.50;5092480;28;19951;-77
2023/06/04 06:23:44;;;;;;;;;;;;;;;21.83;56.80;99904.94;5093118;28;19939;-77
2023/06/04 06:26:09;;;;;;;;;;;;;;;21.81;57.15;99913.25;5092413;28;19981;-77
2023/06/04 06:28:36;;;;;;;;;;;;;;;21.81;57.21;99912.41;5092085;28;19920;-78
2023/06/04 06:31:02;;;;;;;;;;;;;;;21.78;57.40;99920.97;5092170;28;19924;-77
2023/06/04 06:33:27;;;;;;;;;;;;;;;21.75;56.78;99914.19;5091121;28;19912;-77
2023/06/04 06:35:52;;;;;;;;;;;;;;;21.75;57.41;99924.97;5092468;28;19916;-77
2023/06/04 06:38:17;;;;;;;;;;;;;;;21.76;56.92;99917.72;5092164;28;19956;-77
2023/06/04 06:40:43;;;;;;;;;;;;;;;21.74;56.78;99922.50;5092131;28;19942;-76
2023/06/04 06:43:08;;;;;;;;;;;;;;;21.72;57.21;99924.63;5092335;28;19912;-77
2023/06/04 06:45:33;;;;;;;;;;;;;;;21.72;57.13;99921.94;5091956;28;19916;-76
2023/06/04 06:47:59;;;;;;;;;;;;;;;21.74;57.09;99935.94;5092656;28;19912;-77
2023/06/04 06:50:24;;;;;;;;;;;;;;;21.74;57.04;99931.38;5092156;28;19918;-76
2023/06/04 06:52:49;;;;;;;;;;;;;;;21.78;56.18;99929.84;5092086;28;19964;-77
2023/06/04 06:55:15;;;;;;;;;;;;;;;21.83;56.13;99929.13;5092113;28;19912;-76
2023/06/04 06:57:40;;;;;;;;;;;;;;;21.89;56.54;99936.22;5090866;28;19954;-77
2023/06/04 07:00:06;;;;;;;;;;;;;;;21.96;55.83;99939.56;5092012;28;19913;-76
2023/06/04 07:02:32;;;;;;;;;;;;;;;22.01;56.46;99939.66;5091885;28;19912;-76
2023/06/04 07:04:57;;;;;;;;;;;;;;;22.05;56.82;99950.78;5092345;28;19919;-76
2023/06/04 07:07:22;;;;;;;;;;;;;;;22.12;56.65;99944.19;5092081;28;19916;-77
2023/06/04 07:09:47;;;;;;;;;;;;;;;22.20;56.43;99949.16;5091989;28;19919;-77
2023/06/04 07:12:13;;;;;;;;;;;;;;;22.27;56.51;99945.47;5091788;28;19973;-77
2023/06/04 07:14:38;;;;;;;;;;;;;;;22.33;55.51;99942.66;5091973;28;20281;-77
2023/06/04 07:17:03;;;;;;;;;;;;;;;22.37;56.57;99949.19;5090599;28;20002;-77
2023/06/04 07:19:29;;;;;;;;;;;;;;;22.42;55.82;99959.19;5091937;28;19920;-77
2023/06/04 07:21:55;;;;;;;;;;;;;;;22.40;55.67;99950.56;5091871;28;19919;-77
2023/06/04 07:24:20;;;;;;;;;;;;;;;22.30;56.19;99953.91;5092148;28;20352;-76
2023/06/04 07:27:04;;;;;;;;;;;;;;;22.31;56.48;99955.53;5091391;28;19912;-76
2023/06/04 07:29:29;;;;;;;;;;;;;;;22.32;57.49;99950.97;5091600;28;19920;-76
2023/06/04 07:31:54;;;;;;;;;;;;;;;22.36;57.21;99952.13;5091752;28;20011;-76
2023/06/04 07:34:20;;;;;;;;;;;;;;;21.96;56.16;99875.03;5091830;28;19959;-76
2023/06/04 07:36:45;;;;;;;;;;;;;;;22.47;56.05;99957.41;5091606;28;19908;-77
2023/06/04 07:39:10;;;;;;;;;;;;;;;22.47;56.04;99954.72;5091479;28;20345;-76
2023/06/04 07:41:36;;;;;;;;;;;;;;;22.51;56.83;99958.53;5095110;28;19937;-77
2023/06/04 07:44:01;;;;;;;;;;;;;;;22.54;57.04;99953.72;5093208;28;19916;-76
2023/06/04 07:46:27;;;;;;;;;;;;;;;22.59;57.15;99965.38;5091468;28;20400;-76
2023/06/04 07:48:52;;;;;;;;;;;;;;;22.67;55.85;99964.16;5091581;28;19915;-77
2023/06/04 07:51:19;;;;;;;;;;;;;;;22.65;56.23;99966.28;5091377;28;19916;-77
2023/06/04 07:53:44;;;;;;;;;;;;;;;22.67;56.13;99974.91;5091537;28;19912;-76
2023/06/04 07:56:09;;;;;;;;;;;;;;;22.69;55.81;99968.22;5092003;28;19919;-78
2023/06/04 07:58:35;;;;;;;;;;;;;;;22.67;56.23;99975.72;5093862;28;19922;-76
2023/06/04 08:01:00;;;;;;;;;;;;;;;22.69;56.00;99983.56;5095169;28;19923;-76
2023/06/04 08:03:26;;;;;;;;;;;;;;;22.69;56.17;99976.31;5095217;28;19912;-77
2023/06/04 08:05:51;;;;;;;;;;;;;;;22.79;56.36;99972.94;5095243;28;19912;-76
2023/06/04 08:08:16;;;;;;;;;;;;;;;22.92;55.90;99979.88;5094962;28;19923;-77
2023/06/04 08:10:42;;;;;;;;;;;;;;;22.97;56.08;99988.03;5094711;28;20527;-77
2023/06/04 08:13:08;;;;;;;;;;;;;;;22.99;57.23;99985.91;5094810;28;19999;-77
2023/06/04 08:15:33;;;;;;;;;;;;;;;23.02;56.50;99988.91;5094708;28;19916;-77
2023/06/04 08:17:59;;;;;;;;;;;;;;;23.00;56.81;99988.34;5093562;28;19919;-77
2023/06/04 08:20:24;;;;;;;;;;;;;;;22.98;56.92;99992.34;5094730;28;19912;-77
2023/06/04 08:22:49;;;;;;;;;;;;;;;23.00;56.84;99995.63;5094637;28;19912;-77
2023/06/04 08:25:15;;;;;;;;;;;;;;;23.04;56.78;99997.59;5094521;28;19912;-77
2023/06/04 08:27:41;;;;;;;;;;;;;;;23.06;56.52;99991.97;5094355;28;19920;-77
2023/06/04 08:30:07;;;;;;;;;;;;;;;23.17;55.79;99988.34;5094369;28;19946;-77
2023/06/04 08:32:32;;;;;;;;;;;;;;;23.28;55.88;99998.19;5094162;28;19967;-77
2023/06/04 08:34:57;;;;;;;;;;;;;;;23.32;56.20;99998.50;5094346;28;19920;-76
2023/06/04 08:37:24;;;;;;;;;;;;;;;23.41;55.44;99992.41;5094274;28;19916;-77
2023/06/04 08:39:49;;;;;;;;;;;;;;;23.38;55.80;99995.59;5094119;28;19939;-76
2023/06/04 08:42:44;;;;;;;;;;;;;;;23.45;55.40;99993.53;5094089;28;20397;-77
2023/06/04 08:45:11;;;;;;;;;;;;;;;23.45;55.68;99990.03;5085397;28;20390;-77
2023/06/04 08:47:37;;;;;;;;;;;;;;;23.46;55.92;100000.56;5094266;28;19965;-77
2023/06/04 08:50:02;;;;;;;;;;;;;;;23.53;55.36;99999.53;5092808;28;20371;-75
2023/06/04 08:52:28;;;;;;;;;;;;;;;23.48;55.47;100002.19;5093999;28;20439;-75
2023/06/04 08:54:54;;;;;;;;;;;;;;;23.49;56.20;100004.63;5094154;28;20048;-77
2023/06/04 08:57:19;;;;;;;;;;;;;;;23.54;55.47;100003.88;5094465;28;19969;-76
2023/06/04 08:59:48;;;;;;;;;;;;;;;23.45;55.97;100004.31;5093961;28;19912;-75
2023/06/04 09:02:17;;;;;;;;;;;;;;;23.38;55.73;100009.09;5092991;28;19955;-78
2023/06/04 09:04:42;;;;;;;;;;;;;;;23.21;56.71;100007.50;5094051;28;19927;-77
2023/06/04 09:07:10;;;;;;;;;;;;;;;23.18;56.07;100016.09;5094183;28;19912;-76
2023/06/04 09:09:37;;;;;;;;;;;;;;;23.17;56.35;100011.75;5092922;28;20007;-77
2023/06/04 09:12:04;;;;;;;;;;;;;;;23.13;56.94;100004.19;5093984;28;19939;-76
2023/06/04 09:14:29;;;;;;;;;;;;;;;23.24;56.91;100013.22;5093939;28;20345;-77
2023/06/04 09:16:58;;;;;;;;;;;;;;;23.39;56.30;100005.31;5093710;28;19962;-77
2023/06/04 09:19:23;;;;;;;;;;;;;;;23.50;56.54;100005.44;5093779;28;20582;-78
2023/06/04 09:21:55;;;;;;;;;;;;;;;23.64;56.43;100009.41;5093731;28;20003;-77
2023/06/04 09:24:21;;;;;;;;;;;;;;;23.72;56.36;100008.97;5094030;28;19960;-78
2023/06/04 09:26:47;;;;;;;;;;;;;;;23.82;55.66;100001.00;5094499;28;20377;-77
2023/06/04 09:29:13;;;;;;;;;;;;;;;23.92;55.27;100001.13;5093383;28;19971;-77
2023/06/04 09:31:39;;;;;;;;;;;;;;;24.01;55.91;100006.88;5093460;28;20290;-77
2023/06/04 09:34:05;;;;;;;;;;;;;;;24.04;56.27;100001.78;5093478;28;19912;-77
2023/06/04 09:36:31;;;;;;;;;;;;;;;24.02;56.46;100005.81;5093468;28;19919;-77
2023/06/04 09:38:56;;;;;;;;;;;;;;;23.92;57.64;99998.41;5093385;28;19912;-77
2023/06/04 09:41:21;;;;;;;;;;;;;;;23.89;56.37;99993.53;5092118;28;20308;-76
2023/06/04 09:43:47;;;;;;;;;;;;;;;23.87;57.24;99995.66;5093380;28;19939;-76
2023/06/04 09:46:16;;;;;;;;;;;;;;;23.87;57.07;99994.84;5093192;28;19912;-76
2023/06/04 09:48:42;;;;;;;;;;;;;;;23.76;56.17;99994.72;5093775;28;19912;-76
2023/06/04 09:51:07;;;;;;;;;;;;;;;23.74;56.66;99996.84;5093343;28;20397;-76
2023/06/04 09:53:32;;;;;;;;;;;;;;;23.74;57.28;99998.75;5091749;28;19916;-76
2023/06/04 09:56:01;;;;;;;;;;;;;;;23.76;57.39;99991.22;5093019;28;19912;-76
2023/06/04 09:58:27;;;;;;;;;;;;;;;23.88;55.95;99994.59;5093028;28;20412;-76
2023/06/04 10:00:53;;;;;;;;;;;;;;;23.92;56.08;99993.03;5092894;28;20404;-76
2023/06/04 10:03:23;;;;;;;;;;;;;;;23.99;56.67;99992.81;5092830;28;20002;-76
2023/06/04 10:05:48;;;;;;;;;;;;;;;24.06;55.51;99998.81;5092709;28;19942;-76
2023/06/04 10:08:17;;;;;;;;;;;;;;;24.13;56.58;99998.63;5092601;28;19904;-77
2023/06/04 10:10:43;;;;;;;;;;;;;;;24.18;55.29;99998.66;5092929;28;19941;-76
2023/06/04 10:13:18;;;;;;;;;;;;;;;24.18;55.39;100001.38;5092632;28;20336;-77
2023/06/04 10:15:45;;;;;;;;;;;;;;;24.18;55.71;100006.75;5092743;28;19920;-77
2023/06/04 10:18:10;;;;;;;;;;;;;;;24.11;55.63;100000.75;5092788;28;19951;-76
2023/06/04 10:20:36;;;;;;;;;;;;;;;24.11;55.93;100000.75;5093081;28;19944;-75
2023/06/04 10:23:02;;;;;;;;;;;;;;;24.13;55.56;100001.31;5094754;28;19912;-76
2023/06/04 10:25:27;;;;;;;;;;;;;;;24.09;55.48;100001.81;5093105;28;20340;-76
2023/06/04 10:27:53;;;;;;;;;;;;;;;24.07;55.34;100005.84;5092008;28;19927;-77
2023/06/04 10:30:18;;;;;;;;;;;;;;;24.03;55.91;100005.53;5092206;28;19912;-76
2023/06/04 10:32:43;;;;;;;;;;;;;;;24.00;55.79;100005.25;5092166;28;20419;-77
2023/06/04 10:35:09;;;;;;;;;;;;;;;23.97;56.17;100006.56;5092288;28;19981;-76
2023/06/04 10:37:34;;;;;;;;;;;;;;;23.99;55.83;100006.31;5092205;28;19923;-76
2023/06/04 10:39:59;;;;;;;;;;;;;;;23.99;55.41;100004.44;5092173;28;19916;-76
2023/06/04 10:42:25;;;;;;;;;;;;;;;23.98;55.29;100005.50;5092417;28;19912;-76
2023/06/04 10:44:51;;;;;;;;;;;;;;;23.93;56.33;100007.31;5092908;28;20347;-76
2023/06/04 10:47:24;;;;;;;;;;;;;;;23.79;57.03;100006.91;5093068;28;19916;-76
2023/06/04 10:49:51;;;;;;;;;;;;;;;23.74;57.39;100009.53;5092203;28;20300;-77
2023/06/04 10:52:16;;;;;;;;;;;;;;;23.57;57.07;100012.31;5092023;28;19969;-77
2023/06/04 10:54:45;;;;;;;;;;;;;;;23.65;56.06;100001.06;5091832;28;19912;-77
2023/06/04 10:57:13;;;;;;;;;;;;;;;23.83;56.34;100008.03;5091985;28;19912;-77
2023/06/04 10:59:39;;;;;;;;;;;;;;;24.15;55.64;99999.19;5090681;28;20449;-77
2023/06/04 11:02:04;;;;;;;;;;;;;;;24.46;55.08;99994.88;5091979;28;19958;-76
2023/06/04 11:04:30;;;;;;;;;;;;;;;24.67;53.97;99997.50;5090307;28;20000;-77
2023/06/04 11:07:03;;;;;;;;;;;;;;;25.07;52.62;99996.16;5091611;28;19935;-76
2023/06/04 11:09:28;;;;;;;;;;;;;;;25.03;53.45;99998.56;5091538;28;20385;-77
2023/06/04 11:11:57;;;;;;;;;;;;;;;25.08;52.54;99981.56;5091409;28;19924;-77
2023/06/04 11:14:23;;;;;;;;;;;;;;;25.05;53.06;99992.91;5091768;28;19912;-77
2023/06/04 11:17:07;;;;;;;;;;;;;;;24.95;53.11;99996.31;5090161;28;19912;-78
2023/06/04 11:19:36;;;;;;;;;;;;;;;24.88;53.20;99986.81;5090362;28;19912;-77
2023/06/04 11:22:01;;;;;;;;;;;;;;;24.73;53.21;99987.53;5091747;28;19920;-77
2023/06/04 11:24:27;;;;;;;;;;;;;;;24.96;53.07;99976.34;5090349;28;19916;-78
2023/06/04 11:26:52;;;;;;;;;;;;;;;25.24;52.63;99977.84;5091815;28;20377;-77
2023/06/04 11:29:17;;;;;;;;;;;;;;;25.62;51.96;99973.97;5091305;28;19920;-78
2023/06/04 11:31:47;;;;;;;;;;;;;;;25.72;52.07;99983.22;5092935;28;19920;-77
2023/06/04 11:34:28;;;;;;;;;;;;;;;25.75;51.59;99980.78;5095650;28;20002;-77
2023/06/04 11:36:53;;;;;;;;;;;;;;;25.89;51.41;99973.78;5095661;28;19916;-77
2023/06/04 11:39:19;;;;;;;;;;;;;;;26.16;50.29;99978.16;5095780;28;19912;-77
2023/06/04 11:41:45;;;;;;;;;;;;;;;26.23;50.42;99984.94;5095449;28;19965;-75
2023/06/04 11:44:11;;;;;;;;;;;;;;;26.71;49.84;99976.53;5095440;28;19951;-77
2023/06/04 11:46:39;;;;;;;;;;;;;;;26.93;48.07;99977.06;5094094;28;19912;-75
2023/06/04 11:49:05;;;;;;;;;;;;;;;27.00;48.68;99971.38;5095623;28;20373;-76
2023/06/04 11:51:30;;;;;;;;;;;;;;;27.26;47.82;99977.50;5095462;28;19923;-77
2023/06/04 11:53:56;;;;;;;;;;;;;;;27.66;47.65;99968.41;5093887;28;20381;-77
2023/06/04 11:56:23;;;;;;;;;;;;;;;27.95;45.23;99965.78;5094981;28;20378;-76
2023/06/04 11:58:49;;;;;;;;;;;;;;;28.15;44.37;99965.63;5095191;28;20414;-77
2023/06/04 12:01:14;;;;;;;;;;;;;;;28.34;44.55;99969.34;5095202;28;19908;-77
2023/06/04 12:03:40;;;;;;;;;;;;;;;28.46;45.04;99966.25;5095200;28;20281;-77
2023/06/04 12:06:16;;;;;;;;;;;;;;;28.83;44.72;99971.03;5095058;28;19912;-77
2023/06/04 12:08:47;;;;;;;;;;;;;;;28.80;45.05;99977.84;5095005;28;19912;-77
2023/06/04 12:11:26;;;;;;;;;;;;;;;28.52;45.83;99975.16;5094837;28;20010;-78
2023/06/04 12:13:52;;;;;;;;;;;;;;;28.04;45.68;99977.66;5094938;28;19918;-77
2023/06/04 12:16:17;;;;;;;;;;;;;;;27.62;45.78;99981.75;5093588;28;20002;-77
2023/06/04 12:18:42;;;;;;;;;;;;;;;27.34;44.87;99980.47;5094959;28;19923;-77
2023/06/04 12:21:19;;;;;;;;;;;;;;;27.04;46.66;99980.56;5094808;28;20378;-77
2023/06/04 12:23:44;;;;;;;;;;;;;;;26.94;47.05;99978.66;5094822;28;20377;-77
2023/06/04 12:26:19;;;;;;;;;;;;;;;27.25;46.30;99978.59;5094562;28;19920;-78
2023/06/04 12:28:45;;;;;;;;;;;;;;;27.50;45.40;99973.09;5093092;28;19948;-76
2023/06/04 12:31:16;;;;;;;;;;;;;;;27.49;46.42;99980.38;5094503;28;20439;-77
2023/06/04 12:33:42;;;;;;;;;;;;;;;27.31;46.47;99975.59;5094590;28;20403;-77
2023/06/04 12:36:07;;;;;;;;;;;;;;;27.29;46.61;99979.66;5093140;28;19912;-77
2023/06/04 12:38:32;;;;;;;;;;;;;;;27.34;46.11;99983.16;5094413;28;20454;-77
2023/06/04 12:40:57;;;;;;;;;;;;;;;27.63;45.78;99979.84;5093024;28;19916;-77